Latest Weather Observations for Willis Island

IDQ60801

Issued at 1:32 pm EST Tuesday 1 September 2015 (issued every 30 minutes, with the page automatically refreshed every 10 minutes)

About weather observations | Map of weather stations | Latest weather observations for QLD | Other Formats
Station Details ID: 200283 Name: WILLIS ISLAND Lat: -16.29 Lon: 149.97 Height: 9.29 m
Data from the previous 72 hours. | See also: Recent months at Willis Island
Date/Time
EST
Temp
°C
App
Temp
°C
Dew
Point
Rel
Hum
%
Delta-T
°C
Wind Press
QNH
hPa
Press
MSL
hPa
Rain
since 9 am
mm
Dir
 
Spd
km/h
Gust
km/h
Spd
kts
Gust
kts
01/01:30pm 26.7 26.5 19.8 66 4.5 E 20 24 11 13 1015.1 - 0.0
01/01:00pm 26.9 26.5 20.2 66 4.4 E 22 24 12 13 1015.5 - 0.0
01/12:30pm 26.8 26.7 20.0 66 4.4 ENE 20 22 11 12 1016.0 - 0.0
01/12:00pm 26.8 26.9 20.4 68 4.2 E 20 24 11 13 1016.5 1016.5 0.0
01/11:30am 26.3 26.1 19.8 67 4.2 E 20 22 11 12 1017.0 - 0.0
01/11:00am 26.2 26.3 20.0 68 4.0 E 19 22 10 12 1017.3 - 0.0
01/10:30am 26.8 27.0 20.2 67 4.3 E 19 24 10 13 1017.5 - 0.0
01/10:00am 26.2 26.1 20.0 68 4.0 E 20 24 11 13 1017.7 - 0.0
01/09:30am 26.0 25.9 20.0 69 3.9 E 20 24 11 13 1017.6 - 0.0
01/09:00am 25.7 25.7 20.2 71 3.6 E 20 24 11 13 1017.4 1017.4 0.0
01/08:30am 25.2 25.2 20.1 73 3.3 E 20 24 11 13 1017.2 - 0.0
01/08:00am 25.0 25.0 20.1 74 3.2 E 20 24 11 13 1016.9 - 0.0
01/07:30am 24.7 24.7 20.1 75 3.0 E 20 24 11 13 1016.4 - 0.0
01/07:00am 24.2 23.7 20.0 77 2.7 E 22 26 12 14 1016.0 - 0.0
01/06:30am 23.7 22.8 19.8 79 2.5 E 24 28 13 15 1015.7 - 0.0
01/06:00am 23.4 22.4 19.7 80 2.4 E 24 28 13 15 1015.2 1015.2 0.0
01/05:30am 23.5 22.4 19.4 78 2.6 E 24 26 13 14 1014.9 - 0.0
01/05:00am 23.4 22.8 19.7 80 2.4 E 22 26 12 14 1014.7 - 0.0
01/04:30am 23.4 22.7 19.5 79 2.5 E 22 24 12 13 1014.5 - 0.0
01/04:00am 23.3 22.6 19.5 79 2.4 E 22 26 12 14 1014.6 - 0.0
01/03:30am 23.5 22.5 19.6 79 2.5 E 24 28 13 15 1014.7 - 0.0
01/03:00am 23.6 22.6 19.7 79 2.5 E 24 28 13 15 1014.7 1014.7 0.0
01/02:30am 23.7 22.7 19.6 78 2.6 E 24 28 13 15 1014.7 - 0.0
01/02:00am 23.6 22.5 19.5 78 2.6 E 24 26 13 14 1014.9 - 0.0
01/01:30am 23.6 23.2 19.4 77 2.7 E 20 24 11 13 1015.3 - 0.0
01/01:00am 23.6 23.5 20.0 80 2.3 E 20 24 11 13 1015.6 - 0.0
01/12:30am 23.6 23.5 19.5 78 2.6 E 19 22 10 12 1015.9 - 0.0
01/12:00am 23.6 23.1 19.2 76 2.8 E 20 20 11 11 1016.1 1016.1 0.0
 
Date/Time
EST
Temp
°C
App
Temp
°C
Dew
Point
Rel
Hum
%
Delta-T
°C
Wind Press
QNH
hPa
Press
MSL
hPa
Rain
since 9 am
mm
Dir
 
Spd
km/h
Gust
km/h
Spd
kts
Gust
kts
31/11:30pm 23.5 23.3 19.4 78 2.6 ESE 19 20 10 11 1016.3 - 0.0
31/11:00pm 23.6 23.9 19.5 78 2.6 ESE 17 19 9 10 1016.4 - 0.0
31/10:30pm 23.5 23.7 19.3 77 2.7 ESE 17 20 9 11 1016.5 - 0.0
31/10:00pm 23.7 23.5 19.3 76 2.8 SE 19 22 10 12 1016.4 - 0.0
31/09:30pm 23.7 23.6 19.5 77 2.7 SE 19 20 10 11 1016.3 - 0.0
31/09:00pm 23.9 23.9 19.7 77 2.7 SSE 19 22 10 12 1016.0 1016.0 0.0
31/08:30pm 23.9 23.8 20.0 79 2.5 SSE 20 24 11 13 1015.6 - 0.0
31/08:00pm 24.0 24.2 20.1 79 2.5 SSE 19 20 10 11 1015.4 - 0.0
31/07:30pm 24.0 23.9 20.0 78 2.6 SSE 20 22 11 12 1014.9 - 0.0
31/07:00pm 24.2 24.3 20.0 77 2.7 SSE 19 20 10 11 1014.6 - 0.0
31/06:30pm 24.1 25.2 19.6 76 2.9 SE 13 17 7 9 1014.3 - 0.0
31/06:00pm 24.1 24.3 19.4 75 3.0 SSE 17 20 9 11 1014.0 1014.0 0.0
31/05:30pm 24.6 25.7 19.6 73 3.2 SE 13 15 7 8 1014.0 - 0.0
31/05:00pm 25.2 26.6 19.6 71 3.6 SE 11 15 6 8 1013.8 - 0.0
31/04:30pm 25.7 27.2 19.8 70 3.8 SE 11 15 6 8 1013.5 - 0.0
31/04:00pm 25.9 27.4 19.7 68 4.0 SE 11 13 6 7 1013.3 - 0.0
31/03:30pm 26.1 27.1 19.4 66 4.3 SE 13 17 7 9 1013.3 - 0.0
31/03:00pm 26.0 27.4 19.5 67 4.2 ESE 11 15 6 8 1013.4 1013.4 0.0
31/02:30pm 26.3 27.5 19.0 64 4.7 SE 11 15 6 8 1013.7 - 0.0
31/02:00pm 26.8 28.4 19.9 66 4.5 ESE 11 13 6 7 1014.1 - 0.0
31/01:30pm 27.1 28.3 19.9 64 4.7 ESE 13 15 7 8 1014.5 - 0.0
31/01:00pm 26.4 27.3 20.1 68 4.1 ESE 15 17 8 9 1014.8 - 0.0
31/12:30pm 26.8 28.0 19.9 66 4.5 ESE 13 17 7 9 1015.0 - 0.0
31/12:00pm 26.5 27.1 19.4 65 4.6 ESE 15 17 8 9 1015.2 1015.2 0.0
31/11:30am 27.0 27.4 19.9 65 4.6 ESE 17 20 9 11 1015.6 - 0.0
31/11:00am 26.9 27.5 20.3 67 4.3 ESE 17 19 9 10 1016.1 - 0.0
31/10:30am 26.8 28.0 20.6 69 4.1 ESE 15 19 8 10 1016.5 - 0.0
31/10:00am 26.7 27.4 20.4 68 4.1 SE 17 20 9 11 1016.6 - 0.0
31/09:30am 26.3 26.9 20.2 69 4.0 SE 17 20 9 11 1016.6 - 0.0
31/09:00am 25.8 26.5 20.4 72 3.5 SE 17 20 9 11 1016.5 1016.5 0.0
31/08:30am 25.6 26.4 20.6 74 3.3 ESE 17 20 9 11 1016.4 - 0.0
31/08:00am 25.3 26.1 20.6 75 3.1 ESE 17 19 9 10 1016.0 - 0.0
31/07:30am 24.7 25.4 20.4 77 2.8 ESE 17 20 9 11 1015.8 - 0.0
31/07:00am 24.2 24.3 20.0 77 2.7 ESE 19 20 10 11 1015.4 - 0.0
31/06:30am 23.5 23.5 19.8 80 2.4 ESE 19 22 10 12 1015.0 - 0.0
31/06:00am 23.3 23.8 20.0 82 2.1 ESE 17 20 9 11 1014.8 1014.8 0.0
31/05:30am 23.2 23.3 19.9 82 2.1 SE 19 22 10 12 1014.7 - 0.0
31/05:00am 23.2 23.0 19.8 81 2.2 SE 20 22 11 12 1014.3 - 0.0
31/04:30am 23.1 23.2 20.0 83 2.0 SE 19 20 10 11 1014.1 - 0.0
31/04:00am 23.3 23.4 20.0 82 2.1 SSE 19 22 10 12 1014.2 - 0.0
31/03:30am 23.3 23.6 20.4 84 1.9 SE 19 22 10 12 1014.2 - 0.0
31/03:00am 23.2 23.4 20.1 83 2.0 SE 19 20 10 11 1014.2 1014.2 0.0
31/02:30am 23.3 23.6 20.4 84 1.9 SE 19 20 10 11 1014.4 - 0.0
31/02:00am 23.2 23.9 20.4 84 1.8 SE 17 20 9 11 1014.5 - 0.0
31/01:30am 23.3 24.0 20.4 84 1.9 SE 17 20 9 11 1014.7 - 0.0
31/01:00am 23.3 24.0 20.4 84 1.9 ESE 17 20 9 11 1014.9 - 0.0
31/12:30am 23.4 23.7 20.3 83 2.0 ESE 19 20 10 11 1015.2 - 0.0
31/12:00am 23.4 24.3 20.1 82 2.1 ESE 15 19 8 10 1015.4 1015.4 0.0
 
Date/Time
EST
Temp
°C
App
Temp
°C
Dew
Point
Rel
Hum
%
Delta-T
°C
Wind Press
QNH
hPa
Press
MSL
hPa
Rain
since 9 am
mm
Dir
 
Spd
km/h
Gust
km/h
Spd
kts
Gust
kts
30/11:30pm 23.3 24.0 19.7 80 2.3 ESE 15 19 8 10 1015.8 - 0.0
30/11:00pm 23.3 24.0 19.7 80 2.3 SE 15 17 8 9 1015.8 - 0.0
30/10:30pm 23.3 24.1 19.9 81 2.2 SE 15 17 8 9 1016.0 - 0.0
30/10:00pm 23.4 24.2 19.8 80 2.3 SSE 15 17 8 9 1016.0 - 0.0
30/09:30pm 23.5 24.2 19.6 79 2.5 SSE 15 17 8 9 1015.9 - 0.0
30/09:00pm 23.5 24.3 19.8 80 2.4 SSE 15 20 8 11 1015.8 1015.8 0.0
30/08:30pm 23.5 23.8 19.6 79 2.5 SSE 17 19 9 10 1015.7 - 0.0
30/08:00pm 23.6 24.0 19.9 80 2.4 SSE 17 20 9 11 1015.6 - 0.0
30/07:30pm 23.7 24.2 20.0 80 2.4 SSE 17 20 9 11 1015.3 - 0.0
30/07:00pm 23.7 24.2 20.1 80 2.3 SSE 17 20 9 11 1015.0 - 0.0
30/06:30pm 23.8 24.3 20.1 80 2.4 SSE 17 20 9 11 1014.7 - 0.0
30/06:00pm 23.9 23.7 19.4 76 2.9 S 19 20 10 11 1014.3 1014.3 0.0
30/05:30pm 24.3 24.2 19.5 74 3.1 SSE 19 20 10 11 1014.1 - 0.0
30/05:00pm 24.8 24.7 19.5 72 3.4 S 19 20 10 11 1014.0 - 0.0
30/04:30pm 25.1 25.1 19.7 72 3.5 SSE 19 20 10 11 1013.8 - 0.0
30/04:00pm 25.5 25.4 19.6 70 3.8 S 19 20 10 11 1013.9 - 0.0
30/03:30pm 25.6 25.8 20.1 71 3.6 S 19 20 10 11 1013.9 - 0.0
30/03:00pm 26.0 26.1 20.0 69 3.9 S 19 20 10 11 1014.1 1014.1 0.0
30/02:30pm 26.6 27.2 20.2 68 4.2 S 17 20 9 11 1014.3 - 0.0
30/02:00pm 26.3 26.7 19.8 67 4.2 SSE 17 19 9 10 1014.6 - 0.0
30/01:30pm 26.6 27.0 19.8 66 4.4 S 17 19 9 10 1014.9 - 0.0
30/01:00pm 27.0 27.3 19.6 64 4.8 SSE 17 19 9 10 1015.3 - 0.0
30/12:30pm 26.2 26.5 19.7 67 4.2 S 17 19 9 10 1015.6 - 0.0
30/12:00pm 26.7 27.5 19.9 66 4.4 S 15 19 8 10 1016.0 1016.0 0.0
30/11:30am 26.7 27.5 19.8 66 4.5 SSE 15 19 8 10 1016.5 - 0.0
30/11:00am 26.7 27.3 19.4 64 4.7 SSE 15 17 8 9 1016.8 - 0.0
30/10:30am 26.4 27.1 19.6 66 4.4 SE 15 19 8 10 1017.0 - 0.0
30/10:00am 26.7 27.6 20.1 67 4.3 SE 15 17 8 9 1017.2 - 0.0
30/09:30am 26.8 27.9 20.4 68 4.2 SE 15 19 8 10 1017.1 - 0.0
30/09:00am 26.1 27.0 20.1 69 3.9 SE 15 19 8 10 1017.0 1017.0 0.0
30/08:30am 25.8 26.9 20.4 72 3.5 SE 15 19 8 10 1016.8 - 0.0
30/08:00am 25.2 26.0 19.8 72 3.5 ESE 15 17 8 9 1016.4 - 0.0
30/07:30am 24.8 25.1 19.7 73 3.3 ESE 17 19 9 10 1016.0 - 0.0
30/07:00am 24.2 25.0 19.9 77 2.8 ESE 15 17 8 9 1015.7 - 0.0
30/06:30am 23.3 23.8 19.2 78 2.6 ESE 15 17 8 9 1015.3 - 0.0
30/06:00am 23.3 23.7 19.9 81 2.2 ESE 17 20 9 11 1015.0 1015.0 0.0
30/05:30am 23.2 23.5 19.6 80 2.3 ESE 17 19 9 10 1014.7 - 0.0
30/05:00am 23.4 23.7 19.7 80 2.4 E 17 19 9 10 1014.4 - 0.0
30/04:30am 23.3 23.7 19.9 81 2.2 E 17 20 9 11 1014.3 - 0.0
30/04:00am 23.3 23.6 19.5 79 2.4 E 17 20 9 11 1014.3 - 0.0
30/03:30am 23.4 23.2 19.8 80 2.3 E 20 24 11 13 1014.2 - 0.0
30/03:00am 23.4 22.4 19.7 80 2.4 E 24 28 13 15 1014.3 1014.3 0.0
30/02:30am 23.6 22.6 20.4 82 2.1 E 26 30 14 16 1014.5 - 0.0
30/02:00am 23.7 23.3 20.1 80 2.3 ESE 22 24 12 13 1014.9 - 0.0
30/01:30am 23.7 24.0 20.5 82 2.1 ESE 19 24 10 13 1015.3 - 0.0
30/01:00am 23.6 23.5 20.0 80 2.3 E 20 24 11 13 1015.8 - 0.0
30/12:30am 23.8 23.5 19.6 77 2.7 E 20 24 11 13 1016.1 - 0.0
30/12:00am 23.7 23.0 19.6 78 2.6 E 22 26 12 14 1016.4 1016.4 0.0
 
Date/Time
EST
Temp
°C
App
Temp
°C
Dew
Point
Rel
Hum
%
Delta-T
°C
Wind Press
QNH
hPa
Press
MSL
hPa
Rain
since 9 am
mm
Dir
 
Spd
km/h
Gust
km/h
Spd
kts
Gust
kts
29/11:30pm 23.8 23.1 19.6 77 2.7 E 22 26 12 14 1016.7 - 0.0
29/11:00pm 23.8 23.2 19.8 78 2.6 ESE 22 26 12 14 1016.8 - 0.0
29/10:30pm 23.7 22.5 19.3 76 2.8 ESE 24 26 13 14 1016.8 - 0.0
29/10:00pm 23.8 23.3 19.9 79 2.5 ESE 22 26 12 14 1016.7 - 0.0
29/09:30pm 23.6 23.0 19.7 79 2.5 SE 22 26 12 14 1016.7 - 0.0
29/09:00pm 23.7 23.1 19.8 79 2.5 ESE 22 26 12 14 1016.7 1016.7 0.0
29/08:30pm 23.9 23.3 19.7 77 2.7 ESE 22 26 12 14 1016.6 - 0.0
29/08:00pm 23.9 23.3 19.7 77 2.7 ESE 22 28 12 15 1016.5 - 0.0
29/07:30pm 23.9 23.3 19.7 77 2.7 ESE 22 26 12 14 1016.3 - 0.0
29/07:00pm 23.9 23.4 19.9 78 2.6 ESE 22 24 12 13 1016.0 - 0.0
29/06:30pm 24.0 22.9 19.5 76 2.9 ESE 24 26 13 14 1015.8 - 0.0
29/06:00pm 24.0 22.7 19.1 74 3.1 ESE 24 28 13 15 1015.5 1015.5 0.0
29/05:30pm 24.3 23.3 19.6 75 3.0 ESE 24 28 13 15 1015.2 - 0.0
29/05:00pm 24.7 24.0 19.4 72 3.4 SE 22 26 12 14 1015.2 - 0.0
29/04:30pm 24.9 23.6 19.1 70 3.7 SE 24 28 13 15 1015.1 - 0.0
29/04:00pm 25.9 24.9 19.7 68 4.0 SE 24 28 13 15 1015.0 - 0.0
29/03:30pm 26.1 25.4 19.4 66 4.3 SE 22 24 12 13 1015.0 - 0.0
29/03:00pm 26.1 25.4 19.4 66 4.3 ESE 22 26 12 14 1015.2 1015.2 0.0
29/02:30pm 26.2 25.1 19.5 66 4.3 ESE 24 28 13 15 1015.4 - 0.0
29/02:00pm 26.9 26.2 20.3 67 4.3 SE 24 28 13 15 1015.7 - 0.0

Other Formats:

Comma delimited format used in spreadsheet applications
http://www.bom.gov.au/fwo/IDQ60801/IDQ60801.94299.axf

JavaScript Object Notation format (JSON) in row-major order
http://www.bom.gov.au/fwo/IDQ60801/IDQ60801.94299.json